Siloam Springs, Arkansas
Current Conditions -  °F | °C
As of 1:15 AM on Thursday 23 Oct 2014 (Local Time) from KSLG Reporting Station
Clear Clear  
Wind Chill: 57°   Ceiling: Unl
Heat Index: 57°   Visibility: 10mi
Dew Point: 46°   Wind: 5mph
Humidity: 67%   Direction: 160°SSE
Pressure: 30.16"   Gusts: NA
Location:  36.19°N, 94.54°W
Report Text: KSLG 230615Z AUTO 16004KT 10SM CLR 14/08 A3016 RMK AO1
Loading
Personal Weather Stations






























Interactive Weather Map
Tropical Storm Tracking
New forecast layout! Learn more

10-Day Weather Forecast

Advertisements
Track Severe Weather on mobile